sensor_id;sensor_type;location;lat;lon;timestamp;P1;durP1;ratioP1;P2;durP2;ratioP2
77332;SDS011;66408;51.326;12.070;2023-09-08T00:02:25;9.80;;;4.07;;
77332;SDS011;66408;51.326;12.070;2023-09-08T00:04:52;5.45;;;3.90;;
77332;SDS011;66408;51.326;12.070;2023-09-08T00:07:19;9.07;;;4.32;;
77332;SDS011;66408;51.326;12.070;2023-09-08T00:09:46;5.88;;;3.90;;
77332;SDS011;66408;51.326;12.070;2023-09-08T00:12:12;5.80;;;3.95;;
77332;SDS011;66408;51.326;12.070;2023-09-08T00:14:40;6.13;;;3.88;;
77332;SDS011;66408;51.326;12.070;2023-09-08T00:17:06;6.75;;;4.00;;
77332;SDS011;66408;51.326;12.070;2023-09-08T00:19:33;6.13;;;3.97;;
77332;SDS011;66408;51.326;12.070;2023-09-08T00:22:00;7.60;;;3.95;;
77332;SDS011;66408;51.326;12.070;2023-09-08T00:24:27;6.72;;;4.65;;
77332;SDS011;66408;51.326;12.070;2023-09-08T00:26:53;9.10;;;4.18;;
77332;SDS011;66408;51.326;12.070;2023-09-08T00:29:20;6.80;;;3.83;;
77332;SDS011;66408;51.326;12.070;2023-09-08T00:31:46;8.13;;;4.50;;
77332;SDS011;66408;51.326;12.070;2023-09-08T00:34:13;7.00;;;4.20;;
77332;SDS011;66408;51.326;12.070;2023-09-08T00:36:39;7.32;;;4.13;;
77332;SDS011;66408;51.326;12.070;2023-09-08T00:39:06;7.97;;;4.05;;
77332;SDS011;66408;51.326;12.070;2023-09-08T00:41:32;8.23;;;4.35;;
77332;SDS011;66408;51.326;12.070;2023-09-08T00:43:59;4.97;;;4.22;;
77332;SDS011;66408;51.326;12.070;2023-09-08T00:46:26;10.20;;;4.25;;
77332;SDS011;66408;51.326;12.070;2023-09-08T00:48:54;9.25;;;4.63;;
77332;SDS011;66408;51.326;12.070;2023-09-08T00:51:21;9.70;;;4.43;;
77332;SDS011;66408;51.326;12.070;2023-09-08T00:53:49;6.82;;;3.85;;
77332;SDS011;66408;51.326;12.070;2023-09-08T00:56:16;8.35;;;4.38;;
77332;SDS011;66408;51.326;12.070;2023-09-08T00:58:44;7.47;;;4.10;;
77332;SDS011;66408;51.326;12.070;2023-09-08T01:01:12;6.32;;;4.18;;
77332;SDS011;66408;51.326;12.070;2023-09-08T01:03:39;7.60;;;4.40;;
77332;SDS011;66408;51.326;12.070;2023-09-08T01:06:06;7.90;;;4.65;;
77332;SDS011;66408;51.326;12.070;2023-09-08T01:08:32;7.82;;;4.45;;
77332;SDS011;66408;51.326;12.070;2023-09-08T01:11:01;11.38;;;4.38;;
77332;SDS011;66408;51.326;12.070;2023-09-08T01:13:28;6.65;;;4.28;;
77332;SDS011;66408;51.326;12.070;2023-09-08T01:15:55;7.70;;;4.82;;
77332;SDS011;66408;51.326;12.070;2023-09-08T01:18:21;6.82;;;4.63;;
77332;SDS011;66408;51.326;12.070;2023-09-08T01:27:02;9.05;;;4.20;;
77332;SDS011;66408;51.326;12.070;2023-09-08T01:29:29;8.55;;;4.25;;
77332;SDS011;66408;51.326;12.070;2023-09-08T01:31:56;6.32;;;3.78;;
77332;SDS011;66408;51.326;12.070;2023-09-08T01:34:23;7.18;;;4.25;;
77332;SDS011;66408;51.326;12.070;2023-09-08T01:36:50;9.15;;;4.35;;
77332;SDS011;66408;51.326;12.070;2023-09-08T01:39:20;7.05;;;4.00;;
77332;SDS011;66408;51.326;12.070;2023-09-08T01:41:46;9.43;;;4.13;;
77332;SDS011;66408;51.326;12.070;2023-09-08T01:44:13;7.18;;;4.63;;
77332;SDS011;66408;51.326;12.070;2023-09-08T01:46:40;8.20;;;4.30;;
77332;SDS011;66408;51.326;12.070;2023-09-08T01:49:07;8.13;;;4.32;;
77332;SDS011;66408;51.326;12.070;2023-09-08T01:51:34;7.45;;;4.35;;
77332;SDS011;66408;51.326;12.070;2023-09-08T01:54:01;6.72;;;4.30;;
77332;SDS011;66408;51.326;12.070;2023-09-08T01:56:27;8.48;;;4.32;;
77332;SDS011;66408;51.326;12.070;2023-09-08T01:58:54;7.40;;;4.60;;
77332;SDS011;66408;51.326;12.070;2023-09-08T02:01:20;7.82;;;4.28;;
77332;SDS011;66408;51.326;12.070;2023-09-08T02:03:47;6.28;;;4.32;;
77332;SDS011;66408;51.326;12.070;2023-09-08T02:06:13;9.65;;;4.65;;
77332;SDS011;66408;51.326;12.070;2023-09-08T02:08:40;7.47;;;4.32;;
77332;SDS011;66408;51.326;12.070;2023-09-08T02:11:06;7.60;;;4.72;;
77332;SDS011;66408;51.326;12.070;2023-09-08T02:13:33;8.25;;;4.70;;
77332;SDS011;66408;51.326;12.070;2023-09-08T02:15:59;7.53;;;4.53;;
77332;SDS011;66408;51.326;12.070;2023-09-08T02:18:26;7.55;;;4.20;;
77332;SDS011;66408;51.326;12.070;2023-09-08T02:20:54;7.90;;;4.47;;
77332;SDS011;66408;51.326;12.070;2023-09-08T02:23:21;7.43;;;4.00;;
77332;SDS011;66408;51.326;12.070;2023-09-08T02:25:47;7.13;;;4.20;;
77332;SDS011;66408;51.326;12.070;2023-09-08T02:28:14;9.23;;;4.80;;
77332;SDS011;66408;51.326;12.070;2023-09-08T02:30:40;8.27;;;4.80;;
77332;SDS011;66408;51.326;12.070;2023-09-08T02:33:07;10.40;;;5.00;;
77332;SDS011;66408;51.326;12.070;2023-09-08T02:35:35;7.15;;;4.57;;
77332;SDS011;66408;51.326;12.070;2023-09-08T02:38:04;6.13;;;4.05;;
77332;SDS011;66408;51.326;12.070;2023-09-08T02:40:31;6.90;;;4.60;;
77332;SDS011;66408;51.326;12.070;2023-09-08T02:43:01;6.35;;;4.30;;
77332;SDS011;66408;51.326;12.070;2023-09-08T02:45:28;6.95;;;4.35;;
77332;SDS011;66408;51.326;12.070;2023-09-08T02:47:55;7.28;;;4.18;;
77332;SDS011;66408;51.326;12.070;2023-09-08T02:50:22;7.30;;;4.45;;
77332;SDS011;66408;51.326;12.070;2023-09-08T02:52:49;9.00;;;5.05;;
77332;SDS011;66408;51.326;12.070;2023-09-08T02:55:16;6.78;;;4.50;;
77332;SDS011;66408;51.326;12.070;2023-09-08T02:57:42;8.82;;;4.50;;
77332;SDS011;66408;51.326;12.070;2023-09-08T03:00:09;5.97;;;4.28;;
77332;SDS011;66408;51.326;12.070;2023-09-08T03:02:36;10.40;;;4.75;;
77332;SDS011;66408;51.326;12.070;2023-09-08T03:05:02;10.15;;;4.70;;
77332;SDS011;66408;51.326;12.070;2023-09-08T03:07:29;5.95;;;3.90;;
77332;SDS011;66408;51.326;12.070;2023-09-08T03:09:56;9.38;;;4.57;;
77332;SDS011;66408;51.326;12.070;2023-09-08T03:12:23;6.57;;;4.47;;
77332;SDS011;66408;51.326;12.070;2023-09-08T03:14:49;7.13;;;3.97;;
77332;SDS011;66408;51.326;12.070;2023-09-08T03:17:16;6.78;;;5.18;;
77332;SDS011;66408;51.326;12.070;2023-09-08T03:19:44;6.05;;;4.03;;
77332;SDS011;66408;51.326;12.070;2023-09-08T03:22:11;6.65;;;4.13;;
77332;SDS011;66408;51.326;12.070;2023-09-08T03:24:38;8.13;;;4.20;;
77332;SDS011;66408;51.326;12.070;2023-09-08T03:27:04;6.18;;;4.20;;
77332;SDS011;66408;51.326;12.070;2023-09-08T03:29:31;5.60;;;3.65;;
77332;SDS011;66408;51.326;12.070;2023-09-08T03:31:58;7.38;;;4.13;;
77332;SDS011;66408;51.326;12.070;2023-09-08T03:34:24;5.95;;;4.28;;
77332;SDS011;66408;51.326;12.070;2023-09-08T03:36:52;6.65;;;4.05;;
77332;SDS011;66408;51.326;12.070;2023-09-08T03:39:19;5.90;;;3.92;;
77332;SDS011;66408;51.326;12.070;2023-09-08T03:41:55;5.63;;;3.90;;
77332;SDS011;66408;51.326;12.070;2023-09-08T03:44:21;9.55;;;4.38;;
77332;SDS011;66408;51.326;12.070;2023-09-08T03:46:48;8.35;;;4.22;;
77332;SDS011;66408;51.326;12.070;2023-09-08T03:49:14;6.50;;;3.88;;
77332;SDS011;66408;51.326;12.070;2023-09-08T03:51:41;7.97;;;4.47;;
77332;SDS011;66408;51.326;12.070;2023-09-08T03:54:07;5.45;;;4.10;;
77332;SDS011;66408;51.326;12.070;2023-09-08T03:56:34;9.50;;;5.00;;
77332;SDS011;66408;51.326;12.070;2023-09-08T03:59:02;8.52;;;4.43;;
77332;SDS011;66408;51.326;12.070;2023-09-08T04:01:29;7.35;;;4.53;;
77332;SDS011;66408;51.326;12.070;2023-09-08T04:03:56;7.53;;;4.53;;
77332;SDS011;66408;51.326;12.070;2023-09-08T04:06:22;6.13;;;4.28;;
77332;SDS011;66408;51.326;12.070;2023-09-08T04:08:50;7.60;;;4.32;;
77332;SDS011;66408;51.326;12.070;2023-09-08T04:11:17;5.07;;;3.78;;
77332;SDS011;66408;51.326;12.070;2023-09-08T04:13:43;5.32;;;4.28;;
77332;SDS011;66408;51.326;12.070;2023-09-08T04:16:10;5.32;;;4.25;;
77332;SDS011;66408;51.326;12.070;2023-09-08T04:18:36;7.85;;;4.30;;
77332;SDS011;66408;51.326;12.070;2023-09-08T04:21:05;5.95;;;4.15;;
77332;SDS011;66408;51.326;12.070;2023-09-08T04:23:32;7.32;;;4.30;;
77332;SDS011;66408;51.326;12.070;2023-09-08T04:25:59;8.02;;;4.22;;
77332;SDS011;66408;51.326;12.070;2023-09-08T04:28:26;8.82;;;3.75;;
77332;SDS011;66408;51.326;12.070;2023-09-08T04:30:52;6.68;;;3.72;;
77332;SDS011;66408;51.326;12.070;2023-09-08T04:33:19;6.57;;;3.70;;
77332;SDS011;66408;51.326;12.070;2023-09-08T04:35:46;6.40;;;4.13;;
77332;SDS011;66408;51.326;12.070;2023-09-08T04:38:12;6.82;;;4.43;;
77332;SDS011;66408;51.326;12.070;2023-09-08T04:40:42;5.53;;;3.85;;
77332;SDS011;66408;51.326;12.070;2023-09-08T04:43:11;7.50;;;4.90;;
77332;SDS011;66408;51.326;12.070;2023-09-08T04:45:37;7.50;;;5.10;;
77332;SDS011;66408;51.326;12.070;2023-09-08T04:48:04;7.50;;;4.43;;
77332;SDS011;66408;51.326;12.070;2023-09-08T04:50:31;8.10;;;4.78;;
77332;SDS011;66408;51.326;12.070;2023-09-08T04:52:58;7.35;;;4.35;;
77332;SDS011;66408;51.326;12.070;2023-09-08T04:55:24;7.95;;;4.32;;
77332;SDS011;66408;51.326;12.070;2023-09-08T04:57:51;6.88;;;4.22;;
77332;SDS011;66408;51.326;12.070;2023-09-08T05:00:17;7.70;;;4.60;;
77332;SDS011;66408;51.326;12.070;2023-09-08T05:02:44;8.00;;;4.38;;
77332;SDS011;66408;51.326;12.070;2023-09-08T05:05:11;11.13;;;4.78;;
77332;SDS011;66408;51.326;12.070;2023-09-08T05:07:38;8.48;;;4.90;;
77332;SDS011;66408;51.326;12.070;2023-09-08T05:10:04;6.18;;;4.25;;
77332;SDS011;66408;51.326;12.070;2023-09-08T05:12:31;7.22;;;4.20;;
77332;SDS011;66408;51.326;12.070;2023-09-08T05:14:58;5.90;;;4.32;;
77332;SDS011;66408;51.326;12.070;2023-09-08T05:17:32;6.10;;;4.32;;
77332;SDS011;66408;51.326;12.070;2023-09-08T05:19:59;8.38;;;4.40;;
77332;SDS011;66408;51.326;12.070;2023-09-08T05:22:25;7.90;;;4.75;;
77332;SDS011;66408;51.326;12.070;2023-09-08T05:24:51;5.75;;;4.20;;
77332;SDS011;66408;51.326;12.070;2023-09-08T05:27:18;9.65;;;4.00;;
77332;SDS011;66408;51.326;12.070;2023-09-08T05:29:47;8.20;;;5.10;;
77332;SDS011;66408;51.326;12.070;2023-09-08T05:32:17;10.38;;;5.50;;
77332;SDS011;66408;51.326;12.070;2023-09-08T05:34:44;8.73;;;5.63;;
77332;SDS011;66408;51.326;12.070;2023-09-08T05:37:15;7.63;;;5.40;;
77332;SDS011;66408;51.326;12.070;2023-09-08T05:39:41;6.35;;;4.30;;
77332;SDS011;66408;51.326;12.070;2023-09-08T05:42:08;8.25;;;5.43;;
77332;SDS011;66408;51.326;12.070;2023-09-08T05:44:36;10.80;;;5.82;;
77332;SDS011;66408;51.326;12.070;2023-09-08T05:47:03;8.85;;;5.25;;
77332;SDS011;66408;51.326;12.070;2023-09-08T05:49:29;10.13;;;5.85;;
77332;SDS011;66408;51.326;12.070;2023-09-08T05:51:56;11.10;;;5.65;;
77332;SDS011;66408;51.326;12.070;2023-09-08T05:54:26;13.10;;;5.82;;
77332;SDS011;66408;51.326;12.070;2023-09-08T05:56:52;13.25;;;6.47;;
77332;SDS011;66408;51.326;12.070;2023-09-08T05:59:19;13.93;;;6.45;;
77332;SDS011;66408;51.326;12.070;2023-09-08T06:01:45;11.50;;;6.57;;
77332;SDS011;66408;51.326;12.070;2023-09-08T06:04:12;11.60;;;6.15;;
77332;SDS011;66408;51.326;12.070;2023-09-08T06:06:39;9.90;;;6.32;;
77332;SDS011;66408;51.326;12.070;2023-09-08T06:09:07;11.82;;;6.32;;
77332;SDS011;66408;51.326;12.070;2023-09-08T06:11:35;9.52;;;6.28;;
77332;SDS011;66408;51.326;12.070;2023-09-08T06:14:02;10.02;;;6.93;;
77332;SDS011;66408;51.326;12.070;2023-09-08T06:16:28;9.52;;;6.63;;
77332;SDS011;66408;51.326;12.070;2023-09-08T06:18:55;10.73;;;6.55;;
77332;SDS011;66408;51.326;12.070;2023-09-08T06:21:21;12.98;;;7.70;;
77332;SDS011;66408;51.326;12.070;2023-09-08T06:23:48;14.57;;;7.85;;
77332;SDS011;66408;51.326;12.070;2023-09-08T06:26:17;13.90;;;7.43;;
77332;SDS011;66408;51.326;12.070;2023-09-08T06:28:43;14.00;;;7.93;;
77332;SDS011;66408;51.326;12.070;2023-09-08T06:31:10;11.50;;;7.50;;
77332;SDS011;66408;51.326;12.070;2023-09-08T06:33:37;11.90;;;7.82;;
77332;SDS011;66408;51.326;12.070;2023-09-08T06:36:03;12.35;;;7.10;;
77332;SDS011;66408;51.326;12.070;2023-09-08T06:38:30;14.23;;;7.05;;
77332;SDS011;66408;51.326;12.070;2023-09-08T06:40:58;12.65;;;7.57;;
77332;SDS011;66408;51.326;12.070;2023-09-08T06:43:25;12.18;;;7.60;;
77332;SDS011;66408;51.326;12.070;2023-09-08T06:45:51;13.10;;;7.60;;
77332;SDS011;66408;51.326;12.070;2023-09-08T06:48:20;12.15;;;7.68;;
77332;SDS011;66408;51.326;12.070;2023-09-08T06:50:47;11.63;;;7.18;;
77332;SDS011;66408;51.326;12.070;2023-09-08T06:53:14;11.15;;;7.13;;
77332;SDS011;66408;51.326;12.070;2023-09-08T06:55:40;16.42;;;7.95;;
77332;SDS011;66408;51.326;12.070;2023-09-08T06:58:10;14.25;;;7.22;;
77332;SDS011;66408;51.326;12.070;2023-09-08T07:00:38;11.73;;;7.80;;
77332;SDS011;66408;51.326;12.070;2023-09-08T07:03:05;11.82;;;7.07;;
77332;SDS011;66408;51.326;12.070;2023-09-08T07:05:32;13.50;;;7.90;;
77332;SDS011;66408;51.326;12.070;2023-09-08T07:07:59;13.57;;;7.85;;
77332;SDS011;66408;51.326;12.070;2023-09-08T07:10:25;13.23;;;8.40;;
77332;SDS011;66408;51.326;12.070;2023-09-08T07:12:52;15.73;;;8.20;;
77332;SDS011;66408;51.326;12.070;2023-09-08T07:15:18;13.32;;;8.10;;
77332;SDS011;66408;51.326;12.070;2023-09-08T07:17:45;13.38;;;7.95;;
77332;SDS011;66408;51.326;12.070;2023-09-08T07:20:12;10.98;;;7.57;;
77332;SDS011;66408;51.326;12.070;2023-09-08T07:22:38;11.27;;;7.88;;
77332;SDS011;66408;51.326;12.070;2023-09-08T07:25:05;11.15;;;6.90;;
77332;SDS011;66408;51.326;12.070;2023-09-08T07:27:33;12.30;;;7.78;;
77332;SDS011;66408;51.326;12.070;2023-09-08T07:30:00;12.25;;;8.10;;
77332;SDS011;66408;51.326;12.070;2023-09-08T07:32:27;11.27;;;6.97;;
77332;SDS011;66408;51.326;12.070;2023-09-08T07:34:53;10.98;;;7.00;;
77332;SDS011;66408;51.326;12.070;2023-09-08T07:37:22;11.35;;;7.25;;
77332;SDS011;66408;51.326;12.070;2023-09-08T07:39:49;13.38;;;7.38;;
77332;SDS011;66408;51.326;12.070;2023-09-08T07:42:16;11.18;;;7.18;;
77332;SDS011;66408;51.326;12.070;2023-09-08T07:44:43;9.80;;;6.53;;
77332;SDS011;66408;51.326;12.070;2023-09-08T07:47:10;11.82;;;7.28;;
77332;SDS011;66408;51.326;12.070;2023-09-08T07:49:37;12.27;;;6.88;;
77332;SDS011;66408;51.326;12.070;2023-09-08T07:52:04;10.85;;;6.72;;
77332;SDS011;66408;51.326;12.070;2023-09-08T07:54:31;9.18;;;5.88;;
77332;SDS011;66408;51.326;12.070;2023-09-08T07:56:57;13.05;;;6.95;;
77332;SDS011;66408;51.326;12.070;2023-09-08T07:59:24;8.50;;;6.15;;
77332;SDS011;66408;51.326;12.070;2023-09-08T08:01:50;12.52;;;6.28;;
77332;SDS011;66408;51.326;12.070;2023-09-08T08:04:17;9.13;;;5.57;;
77332;SDS011;66408;51.326;12.070;2023-09-08T08:06:43;8.73;;;5.43;;
77332;SDS011;66408;51.326;12.070;2023-09-08T08:09:10;8.98;;;5.80;;
77332;SDS011;66408;51.326;12.070;2023-09-08T08:11:37;8.15;;;5.65;;
77332;SDS011;66408;51.326;12.070;2023-09-08T08:14:03;9.23;;;5.90;;
77332;SDS011;66408;51.326;12.070;2023-09-08T08:16:30;11.07;;;6.25;;
77332;SDS011;66408;51.326;12.070;2023-09-08T08:18:56;8.05;;;5.45;;
77332;SDS011;66408;51.326;12.070;2023-09-08T08:21:23;10.05;;;5.85;;
77332;SDS011;66408;51.326;12.070;2023-09-08T08:23:50;9.98;;;5.47;;
77332;SDS011;66408;51.326;12.070;2023-09-08T08:26:17;10.90;;;4.72;;
77332;SDS011;66408;51.326;12.070;2023-09-08T08:28:44;11.98;;;5.57;;
77332;SDS011;66408;51.326;12.070;2023-09-08T08:31:11;12.43;;;5.53;;
77332;SDS011;66408;51.326;12.070;2023-09-08T08:33:37;10.38;;;4.93;;
77332;SDS011;66408;51.326;12.070;2023-09-08T08:36:04;8.85;;;5.40;;
77332;SDS011;66408;51.326;12.070;2023-09-08T08:38:31;7.85;;;5.93;;
77332;SDS011;66408;51.326;12.070;2023-09-08T08:41:02;7.65;;;5.03;;
77332;SDS011;66408;51.326;12.070;2023-09-08T08:43:31;7.68;;;5.13;;
77332;SDS011;66408;51.326;12.070;2023-09-08T08:45:58;7.88;;;5.13;;
77332;SDS011;66408;51.326;12.070;2023-09-08T08:48:27;7.22;;;4.75;;
77332;SDS011;66408;51.326;12.070;2023-09-08T08:50:56;6.40;;;4.93;;
77332;SDS011;66408;51.326;12.070;2023-09-08T08:53:24;8.60;;;4.82;;
77332;SDS011;66408;51.326;12.070;2023-09-08T08:55:51;5.90;;;4.40;;
77332;SDS011;66408;51.326;12.070;2023-09-08T08:58:21;7.93;;;5.10;;
77332;SDS011;66408;51.326;12.070;2023-09-08T09:00:52;7.32;;;4.35;;
77332;SDS011;66408;51.326;12.070;2023-09-08T09:03:20;8.57;;;5.28;;
77332;SDS011;66408;51.326;12.070;2023-09-08T09:05:50;6.05;;;4.60;;
77332;SDS011;66408;51.326;12.070;2023-09-08T09:08:17;6.50;;;4.28;;
77332;SDS011;66408;51.326;12.070;2023-09-08T09:10:45;7.07;;;4.47;;
77332;SDS011;66408;51.326;12.070;2023-09-08T09:13:12;6.07;;;4.60;;
77332;SDS011;66408;51.326;12.070;2023-09-08T09:15:38;8.82;;;5.53;;
77332;SDS011;66408;51.326;12.070;2023-09-08T09:18:06;6.07;;;4.88;;
77332;SDS011;66408;51.326;12.070;2023-09-08T09:20:34;5.70;;;4.53;;
77332;SDS011;66408;51.326;12.070;2023-09-08T09:23:01;7.75;;;4.57;;
77332;SDS011;66408;51.326;12.070;2023-09-08T09:25:28;7.60;;;4.95;;
77332;SDS011;66408;51.326;12.070;2023-09-08T09:27:57;9.43;;;4.95;;
77332;SDS011;66408;51.326;12.070;2023-09-08T09:30:45;6.40;;;4.53;;
77332;SDS011;66408;51.326;12.070;2023-09-08T09:33:17;7.13;;;4.40;;
77332;SDS011;66408;51.326;12.070;2023-09-08T09:35:45;7.18;;;4.47;;
77332;SDS011;66408;51.326;12.070;2023-09-08T09:38:19;8.07;;;4.60;;
77332;SDS011;66408;51.326;12.070;2023-09-08T09:40:47;6.55;;;4.78;;
77332;SDS011;66408;51.326;12.070;2023-09-08T09:43:15;6.88;;;4.90;;
77332;SDS011;66408;51.326;12.070;2023-09-08T09:45:43;7.53;;;4.78;;
77332;SDS011;66408;51.326;12.070;2023-09-08T09:48:11;7.30;;;5.45;;
77332;SDS011;66408;51.326;12.070;2023-09-08T09:50:39;8.10;;;4.90;;
77332;SDS011;66408;51.326;12.070;2023-09-08T09:53:14;7.60;;;4.03;;
77332;SDS011;66408;51.326;12.070;2023-09-08T09:55:42;8.98;;;4.50;;
77332;SDS011;66408;51.326;12.070;2023-09-08T10:00:38;7.55;;;4.43;;
77332;SDS011;66408;51.326;12.070;2023-09-08T10:03:07;7.85;;;4.32;;
77332;SDS011;66408;51.326;12.070;2023-09-08T10:05:34;9.50;;;4.65;;
77332;SDS011;66408;51.326;12.070;2023-09-08T10:08:03;8.50;;;4.30;;
77332;SDS011;66408;51.326;12.070;2023-09-08T10:10:30;5.88;;;4.35;;
77332;SDS011;66408;51.326;12.070;2023-09-08T10:13:01;9.02;;;4.38;;
77332;SDS011;66408;51.326;12.070;2023-09-08T10:15:30;7.53;;;4.40;;
77332;SDS011;66408;51.326;12.070;2023-09-08T10:17:58;9.07;;;4.88;;
77332;SDS011;66408;51.326;12.070;2023-09-08T10:20:27;8.43;;;4.40;;
77332;SDS011;66408;51.326;12.070;2023-09-08T10:23:09;5.70;;;4.40;;
77332;SDS011;66408;51.326;12.070;2023-09-08T10:25:45;8.70;;;4.57;;
77332;SDS011;66408;51.326;12.070;2023-09-08T10:28:23;7.15;;;4.20;;
77332;SDS011;66408;51.326;12.070;2023-09-08T10:30:51;5.70;;;4.30;;
77332;SDS011;66408;51.326;12.070;2023-09-08T10:33:19;5.35;;;4.70;;
77332;SDS011;66408;51.326;12.070;2023-09-08T10:35:46;9.90;;;4.68;;
77332;SDS011;66408;51.326;12.070;2023-09-08T10:38:27;6.35;;;3.90;;
77332;SDS011;66408;51.326;12.070;2023-09-08T10:43:44;6.82;;;4.20;;
77332;SDS011;66408;51.326;12.070;2023-09-08T10:46:25;8.15;;;4.88;;
77332;SDS011;66408;51.326;12.070;2023-09-08T10:48:54;7.53;;;4.75;;
77332;SDS011;66408;51.326;12.070;2023-09-08T10:51:21;9.68;;;4.88;;
77332;SDS011;66408;51.326;12.070;2023-09-08T10:53:49;6.53;;;4.75;;
77332;SDS011;66408;51.326;12.070;2023-09-08T10:56:16;6.60;;;4.50;;
77332;SDS011;66408;51.326;12.070;2023-09-08T10:58:43;5.85;;;4.32;;
77332;SDS011;66408;51.326;12.070;2023-09-08T11:01:17;7.22;;;4.90;;
77332;SDS011;66408;51.326;12.070;2023-09-08T11:03:46;6.95;;;4.82;;
77332;SDS011;66408;51.326;12.070;2023-09-08T11:06:17;8.05;;;4.78;;
77332;SDS011;66408;51.326;12.070;2023-09-08T11:11:13;6.65;;;4.72;;
77332;SDS011;66408;51.326;12.070;2023-09-08T11:13:40;7.25;;;4.63;;
77332;SDS011;66408;51.326;12.070;2023-09-08T11:16:07;8.52;;;4.40;;
77332;SDS011;66408;51.326;12.070;2023-09-08T11:18:34;6.82;;;4.60;;
77332;SDS011;66408;51.326;12.070;2023-09-08T11:21:02;7.15;;;4.20;;
77332;SDS011;66408;51.326;12.070;2023-09-08T11:23:29;6.90;;;4.68;;
77332;SDS011;66408;51.326;12.070;2023-09-08T11:25:57;5.88;;;4.30;;
77332;SDS011;66408;51.326;12.070;2023-09-08T11:28:29;5.97;;;3.97;;
77332;SDS011;66408;51.326;12.070;2023-09-08T11:30:55;6.50;;;4.25;;
77332;SDS011;66408;51.326;12.070;2023-09-08T11:33:24;7.38;;;3.97;;
77332;SDS011;66408;51.326;12.070;2023-09-08T11:35:53;5.55;;;3.80;;
77332;SDS011;66408;51.326;12.070;2023-09-08T11:38:28;5.72;;;3.80;;
77332;SDS011;66408;51.326;12.070;2023-09-08T11:40:56;6.57;;;4.05;;
77332;SDS011;66408;51.326;12.070;2023-09-08T11:43:23;5.90;;;4.20;;
77332;SDS011;66408;51.326;12.070;2023-09-08T11:45:51;6.15;;;4.07;;
77332;SDS011;66408;51.326;12.070;2023-09-08T11:48:18;5.95;;;3.70;;
77332;SDS011;66408;51.326;12.070;2023-09-08T11:50:45;8.02;;;3.90;;
77332;SDS011;66408;51.326;12.070;2023-09-08T11:53:12;6.55;;;4.03;;
77332;SDS011;66408;51.326;12.070;2023-09-08T11:55:38;7.10;;;3.72;;
77332;SDS011;66408;51.326;12.070;2023-09-08T11:58:05;8.30;;;4.25;;
77332;SDS011;66408;51.326;12.070;2023-09-08T12:00:32;8.82;;;3.70;;
77332;SDS011;66408;51.326;12.070;2023-09-08T12:03:12;7.55;;;3.83;;
77332;SDS011;66408;51.326;12.070;2023-09-08T12:05:41;6.68;;;3.65;;
77332;SDS011;66408;51.326;12.070;2023-09-08T12:08:10;7.32;;;4.00;;
77332;SDS011;66408;51.326;12.070;2023-09-08T12:10:43;9.07;;;3.72;;
77332;SDS011;66408;51.326;12.070;2023-09-08T12:13:09;4.80;;;3.38;;
77332;SDS011;66408;51.326;12.070;2023-09-08T12:15:37;4.25;;;3.30;;
77332;SDS011;66408;51.326;12.070;2023-09-08T12:18:12;5.30;;;3.53;;
77332;SDS011;66408;51.326;12.070;2023-09-08T12:23:33;7.25;;;3.50;;
77332;SDS011;66408;51.326;12.070;2023-09-08T12:26:00;6.55;;;3.75;;
77332;SDS011;66408;51.326;12.070;2023-09-08T12:28:29;6.10;;;3.35;;
77332;SDS011;66408;51.326;12.070;2023-09-08T12:30:57;6.07;;;3.15;;
77332;SDS011;66408;51.326;12.070;2023-09-08T12:33:25;7.50;;;3.58;;
77332;SDS011;66408;51.326;12.070;2023-09-08T12:35:52;6.68;;;3.60;;
77332;SDS011;66408;51.326;12.070;2023-09-08T12:38:19;5.30;;;3.75;;
77332;SDS011;66408;51.326;12.070;2023-09-08T12:40:46;5.18;;;3.22;;
77332;SDS011;66408;51.326;12.070;2023-09-08T12:43:13;6.35;;;3.75;;
77332;SDS011;66408;51.326;12.070;2023-09-08T12:45:56;5.43;;;3.42;;
77332;SDS011;66408;51.326;12.070;2023-09-08T12:48:23;5.38;;;3.42;;
77332;SDS011;66408;51.326;12.070;2023-09-08T12:50:52;4.47;;;3.42;;
77332;SDS011;66408;51.326;12.070;2023-09-08T12:53:19;5.63;;;3.33;;
77332;SDS011;66408;51.326;12.070;2023-09-08T12:55:47;5.85;;;3.65;;
77332;SDS011;66408;51.326;12.070;2023-09-08T12:58:14;4.63;;;3.45;;
77332;SDS011;66408;51.326;12.070;2023-09-08T13:00:40;4.45;;;3.60;;
77332;SDS011;66408;51.326;12.070;2023-09-08T13:03:07;5.57;;;3.92;;
77332;SDS011;66408;51.326;12.070;2023-09-08T13:05:34;4.57;;;3.13;;
77332;SDS011;66408;51.326;12.070;2023-09-08T13:08:01;4.07;;;3.53;;
77332;SDS011;66408;51.326;12.070;2023-09-08T13:10:27;5.70;;;3.30;;
77332;SDS011;66408;51.326;12.070;2023-09-08T13:12:54;4.35;;;3.30;;
77332;SDS011;66408;51.326;12.070;2023-09-08T13:15:21;3.90;;;2.90;;
77332;SDS011;66408;51.326;12.070;2023-09-08T13:17:49;4.13;;;3.30;;
77332;SDS011;66408;51.326;12.070;2023-09-08T13:20:15;4.82;;;3.40;;
77332;SDS011;66408;51.326;12.070;2023-09-08T13:22:42;4.93;;;3.38;;
77332;SDS011;66408;51.326;12.070;2023-09-08T13:25:10;6.13;;;3.75;;
77332;SDS011;66408;51.326;12.070;2023-09-08T13:27:36;5.78;;;3.20;;
77332;SDS011;66408;51.326;12.070;2023-09-08T13:30:10;6.70;;;3.53;;
77332;SDS011;66408;51.326;12.070;2023-09-08T13:32:38;4.25;;;3.20;;
77332;SDS011;66408;51.326;12.070;2023-09-08T13:35:05;5.43;;;3.58;;
77332;SDS011;66408;51.326;12.070;2023-09-08T13:37:33;5.20;;;3.65;;
77332;SDS011;66408;51.326;12.070;2023-09-08T13:40:05;4.90;;;3.60;;
77332;SDS011;66408;51.326;12.070;2023-09-08T13:42:33;5.00;;;3.45;;
77332;SDS011;66408;51.326;12.070;2023-09-08T13:45:00;9.57;;;3.97;;
77332;SDS011;66408;51.326;12.070;2023-09-08T13:47:27;6.38;;;3.50;;
77332;SDS011;66408;51.326;12.070;2023-09-08T13:49:54;7.00;;;3.85;;
77332;SDS011;66408;51.326;12.070;2023-09-08T13:52:24;6.20;;;3.60;;
77332;SDS011;66408;51.326;12.070;2023-09-08T13:54:55;6.50;;;3.35;;
77332;SDS011;66408;51.326;12.070;2023-09-08T13:57:42;7.15;;;3.92;;
77332;SDS011;66408;51.326;12.070;2023-09-08T14:00:09;5.82;;;3.13;;
77332;SDS011;66408;51.326;12.070;2023-09-08T14:02:42;6.00;;;3.78;;
77332;SDS011;66408;51.326;12.070;2023-09-08T14:07:50;5.55;;;3.78;;
77332;SDS011;66408;51.326;12.070;2023-09-08T14:10:27;5.88;;;3.78;;
77332;SDS011;66408;51.326;12.070;2023-09-08T14:13:05;5.68;;;3.92;;
77332;SDS011;66408;51.326;12.070;2023-09-08T14:15:32;4.75;;;3.97;;
77332;SDS011;66408;51.326;12.070;2023-09-08T14:17:59;5.38;;;3.78;;
77332;SDS011;66408;51.326;12.070;2023-09-08T14:20:28;4.43;;;3.45;;
77332;SDS011;66408;51.326;12.070;2023-09-08T14:22:55;6.63;;;3.83;;
77332;SDS011;66408;51.326;12.070;2023-09-08T14:25:22;5.53;;;3.60;;
77332;SDS011;66408;51.326;12.070;2023-09-08T14:27:52;7.43;;;3.80;;
77332;SDS011;66408;51.326;12.070;2023-09-08T14:30:23;7.05;;;3.97;;
77332;SDS011;66408;51.326;12.070;2023-09-08T14:32:52;5.53;;;4.07;;
77332;SDS011;66408;51.326;12.070;2023-09-08T14:35:19;5.28;;;3.78;;
77332;SDS011;66408;51.326;12.070;2023-09-08T14:37:48;6.38;;;3.97;;
77332;SDS011;66408;51.326;12.070;2023-09-08T14:40:15;5.53;;;3.45;;
77332;SDS011;66408;51.326;12.070;2023-09-08T14:42:42;7.57;;;3.83;;
77332;SDS011;66408;51.326;12.070;2023-09-08T14:45:08;4.43;;;3.50;;
77332;SDS011;66408;51.326;12.070;2023-09-08T14:47:35;5.18;;;3.42;;
77332;SDS011;66408;51.326;12.070;2023-09-08T14:50:02;5.63;;;3.60;;
77332;SDS011;66408;51.326;12.070;2023-09-08T14:52:29;6.72;;;3.80;;
77332;SDS011;66408;51.326;12.070;2023-09-08T14:54:56;6.18;;;4.00;;
77332;SDS011;66408;51.326;12.070;2023-09-08T14:57:22;6.03;;;3.95;;